Time;durP1;ratioP1;P1;durP2;ratioP2;P2;SDS_P1;SDS_P2;PMS_P1;PMS_P2;Temp;Humidity;BMP_temperature;BMP_pressure;BME280_temperature;BME280_humidity;BME280_pressure;Samples;Min_cycle;Max_cycle;Signal;HPM_P1;HPM_P2
2022/01/10 00:00:12;;;;;;;28.90;9.90;;;;;;;3.46;95.79;100163.38;107897;1280;75020;-77
2022/01/10 00:02:39;;;;;;;;;;;;;;;3.48;95.49;100173.57;107840;1281;71386;-78
2022/01/10 00:05:07;;;;;;;33.50;11.30;;;;;;;3.45;95.62;100173.92;107685;1282;72636;-77
2022/01/10 00:07:33;;;;;;;35.70;10.80;;;;;;;3.44;95.97;100183.70;107809;1281;60855;-79
2022/01/10 00:10:00;;;;;;;46.20;12.10;;;;;;;3.43;95.96;100194.27;107813;1281;60401;-80
2022/01/10 00:12:26;;;;;;;41.90;14.00;;;;;;;3.43;96.15;100193.59;107774;1281;75233;-80
2022/01/10 00:14:53;;;;;;;34.30;11.70;;;;;;;3.43;96.18;100198.80;107934;1280;58255;-80
2022/01/10 00:17:19;;;;;;;34.20;12.00;;;;;;;3.41;95.88;100203.39;107750;1281;72946;-80
2022/01/10 00:19:46;;;;;;;48.40;13.60;;;;;;;3.39;96.11;100201.79;107875;1281;58240;-80
2022/01/10 00:22:12;;;;;;;35.80;10.30;;;;;;;3.39;96.03;100205.85;107528;1282;61604;-77
2022/01/10 00:24:39;;;;;;;42.90;10.90;;;;;;;3.36;96.13;100211.73;107719;1281;74103;-77
2022/01/10 00:27:06;;;;;;;30.70;11.30;;;;;;;3.34;96.35;100215.54;107869;1281;71580;-77
2022/01/10 00:29:33;;;;;;;37.00;11.60;;;;;;;3.34;96.47;100215.71;107916;1281;73050;-77
2022/01/10 00:32:00;;;;;;;27.80;7.00;;;;;;;3.35;96.14;100221.58;107411;1282;62311;-77
2022/01/10 00:34:29;;;;;;;37.90;9.00;;;;;;;3.34;96.23;100220.65;107723;1281;60506;-76
2022/01/10 00:36:55;;;;;;;30.50;12.10;;;;;;;3.31;96.06;100227.55;107819;1279;59046;-77
2022/01/10 00:39:22;;;;;;;36.20;13.10;;;;;;;3.31;96.44;100223.29;107717;1281;71510;-80
2022/01/10 00:41:48;;;;;;;38.00;9.80;;;;;;;3.31;96.45;100233.15;107841;1281;72934;-82
2022/01/10 00:44:15;;;;;;;39.40;10.00;;;;;;;3.30;96.37;100233.21;107841;1281;61983;-80
2022/01/10 00:46:41;;;;;;;31.50;9.50;;;;;;;3.28;96.57;100241.80;107849;1281;57639;-78
2022/01/10 00:49:08;;;;;;;25.10;8.50;;;;;;;3.27;96.39;100246.23;107623;1282;74163;-77
2022/01/10 00:51:35;;;;;;;37.00;11.40;;;;;;;3.25;96.73;100245.31;107829;1281;58301;-80
2022/01/10 00:54:01;;;;;;;26.80;9.20;;;;;;;3.24;96.70;100247.16;107466;1282;74349;-76
2022/01/10 00:56:28;;;;;;;28.80;10.50;;;;;;;3.21;96.83;100247.27;107860;1281;58324;-80
2022/01/10 00:58:54;;;;;;;29.10;10.40;;;;;;;3.19;96.81;100255.48;107868;1281;58394;-77
2022/01/10 01:01:21;;;;;;;27.00;9.40;;;;;;;3.16;96.66;100264.16;107871;1281;72887;-80
2022/01/10 01:03:50;;;;;;;30.60;8.80;;;;;;;3.14;97.26;100263.34;107910;1280;71808;-80
2022/01/10 01:06:17;;;;;;;44.70;11.90;;;;;;;3.11;97.05;100266.02;107796;1281;73105;-80
2022/01/10 01:08:45;;;;;;;34.20;8.70;;;;;;;3.09;97.14;100274.61;107888;1280;63275;-80
2022/01/10 01:11:41;;;;;;;29.70;9.20;;;;;;;3.05;97.18;100284.35;107628;1281;60498;-78
2022/01/10 01:14:08;;;;;;;24.10;9.70;;;;;;;3.04;97.36;100288.14;107837;1279;74207;-80
2022/01/10 01:16:44;;;;;;;32.60;8.50;;;;;;;3.04;97.57;100291.77;107858;1281;71618;-80
2022/01/10 01:24:23;;;;;;;37.30;12.40;;;;;;;3.05;97.64;100307.80;107757;1281;60593;-81
2022/01/10 01:26:51;;;;;;;30.90;9.90;;;;;;;3.07;97.62;100310.59;107680;1281;74253;-81
2022/01/10 01:29:21;;;;;;;38.10;11.70;;;;;;;3.08;97.71;100313.52;107810;1281;71392;-80
2022/01/10 01:31:48;;;;;;;43.90;11.30;;;;;;;3.10;97.72;100317.79;107858;1281;72971;-81
2022/01/10 01:34:16;;;;;;;27.00;7.80;;;;;;;3.13;97.53;100315.66;107757;1280;62045;-80
2022/01/10 01:36:47;;;;;;;34.10;10.10;;;;;;;3.14;97.60;100321.15;107766;1281;61658;-78
2022/01/10 01:39:21;;;;;;;33.50;10.80;;;;;;;3.14;97.22;100323.55;107809;1281;74103;-78
2022/01/10 01:41:56;;;;;;;38.80;12.40;;;;;;;3.15;97.52;100326.30;107892;1281;71388;-79
2022/01/10 01:44:23;;;;;;;27.80;8.20;;;;;;;3.17;97.40;100332.06;107842;1281;73597;-80
2022/01/10 01:46:49;;;;;;;39.70;12.80;;;;;;;3.19;97.12;100332.42;107847;1281;62011;-81
2022/01/10 01:49:16;;;;;;;37.70;12.00;;;;;;;3.21;97.29;100338.20;107831;1280;60271;-79
2022/01/10 01:51:43;;;;;;;50.60;11.70;;;;;;;3.23;97.57;100345.34;107906;1281;73755;-78
2022/01/10 01:54:12;;;;;;;41.30;10.90;;;;;;;3.25;97.25;100352.85;107851;1281;71512;-81
2022/01/10 01:56:39;;;;;;;56.50;11.40;;;;;;;3.27;97.32;100354.63;107861;1281;74188;-79
2022/01/10 01:59:09;;;;;;;41.40;11.50;;;;;;;3.29;97.19;100360.91;107503;1282;62272;-78
2022/01/10 02:01:36;;;;;;;44.10;13.20;;;;;;;3.30;97.41;100363.84;107514;1282;61429;-80
2022/01/10 02:04:03;;;;;;;37.10;12.10;;;;;;;3.29;97.30;100362.67;107706;1267;75215;-80
2022/01/10 02:06:30;;;;;;;33.80;9.90;;;;;;;3.28;97.22;100370.11;108228;1277;72423;-80
2022/01/10 02:08:57;;;;;;;32.20;11.70;;;;;;;3.25;97.26;100365.21;108076;1279;74690;-78
2022/01/10 02:11:24;;;;;;;37.60;11.20;;;;;;;3.23;97.16;100367.38;108040;1279;62497;-80
2022/01/10 02:13:50;;;;;;;37.90;12.90;;;;;;;3.21;97.36;100372.05;107977;1268;61740;-80
2022/01/10 02:16:21;;;;;;;43.20;11.90;;;;;;;3.19;97.22;100374.50;108042;1267;58345;-77
2022/01/10 02:18:49;;;;;;;41.00;13.90;;;;;;;3.18;97.32;100378.98;108293;1277;71532;-77
2022/01/10 02:21:16;;;;;;;29.70;11.80;;;;;;;3.16;97.50;100383.18;108093;1278;71415;-77
2022/01/10 02:23:43;;;;;;;37.10;10.60;;;;;;;3.12;97.44;100384.77;108080;1277;63582;-77
2022/01/10 02:26:10;;;;;;;45.20;12.30;;;;;;;3.09;97.56;100393.92;108146;1277;60637;-78
2022/01/10 02:28:37;;;;;;;35.50;11.80;;;;;;;3.05;97.93;100401.05;108087;1277;74683;-78
2022/01/10 02:31:03;;;;;;;36.60;12.10;;;;;;;3.03;97.81;100407.02;108121;1277;71468;-78
2022/01/10 02:33:31;;;;;;;38.20;12.50;;;;;;;3.00;97.96;100411.26;107751;1279;73321;-78
2022/01/10 02:39:04;;;;;;;38.70;13.00;;;;;;;2.94;97.72;100421.58;108076;1279;60634;-79
2022/01/10 02:41:33;;;;;;;31.90;13.00;;;;;;;2.92;98.25;100425.79;107846;1279;74951;-78
2022/01/10 02:44:03;;;;;;;39.60;13.60;;;;;;;2.90;98.18;100424.27;107872;1279;72377;-78
2022/01/10 02:46:35;;;;;;;40.00;12.40;;;;;;;2.89;98.60;100437.39;107874;1279;71852;-80
2022/01/10 02:49:13;;;;;;;42.80;12.70;;;;;;;2.88;98.21;100444.66;107904;1279;63296;-81
2022/01/10 02:51:40;;;;;;;43.20;15.10;;;;;;;2.86;98.25;100450.86;107905;1267;61755;-80
2022/01/10 02:54:12;;;;;;;49.50;15.00;;;;;;;2.85;98.39;100455.13;107934;1279;75290;-79
2022/01/10 02:56:51;;;;;;;28.50;10.20;;;;;;;2.84;98.07;100459.45;107791;1280;70497;-78
2022/01/10 02:59:18;;;;;;;45.20;13.50;;;;;;;2.81;98.46;100467.55;107832;1279;72695;-78
2022/01/10 03:01:45;;;;;;;46.70;14.40;;;;;;;2.78;98.32;100467.61;108040;1279;61924;-80
2022/01/10 03:04:12;;;;;;;51.70;13.70;;;;;;;2.77;98.70;100472.33;107711;1279;60515;-78
2022/01/10 03:06:39;;;;;;;42.80;13.40;;;;;;;2.76;98.46;100474.66;107812;1279;74380;-78
2022/01/10 03:09:06;;;;;;;47.50;14.20;;;;;;;2.75;98.36;100478.54;108060;1279;71317;-78
2022/01/10 03:11:33;;;;;;;38.30;12.90;;;;;;;2.76;98.51;100485.33;107573;1279;74026;-80
2022/01/10 03:14:00;;;;;;;45.60;15.10;;;;;;;2.74;98.78;100485.44;108000;1279;62762;-78
2022/01/10 03:16:27;;;;;;;49.90;12.50;;;;;;;2.75;98.46;100487.64;107973;1279;60626;-78
2022/01/10 03:18:54;;;;;;;48.80;14.20;;;;;;;2.76;98.74;100497.54;108065;1269;75271;-77
2022/01/10 03:21:20;;;;;;;37.70;14.30;;;;;;;2.77;98.88;100502.88;108076;1277;72800;-80
2022/01/10 03:23:48;;;;;;;56.40;15.30;;;;;;;2.78;98.98;100506.38;108062;1277;74133;-81
2022/01/10 03:26:14;;;;;;;48.80;15.40;;;;;;;2.81;98.86;100510.34;108182;1277;62267;-78
2022/01/10 03:28:41;;;;;;;42.10;14.40;;;;;;;2.84;99.13;100511.63;108165;1277;60214;-80
2022/01/10 03:31:08;;;;;;;47.10;15.00;;;;;;;2.88;98.96;100515.88;108206;1277;60163;-80
2022/01/10 03:33:35;;;;;;;45.90;16.50;;;;;;;2.92;98.93;100515.42;107820;1267;71196;-79
2022/01/10 03:36:01;;;;;;;39.60;13.00;;;;;;;2.93;98.95;100517.10;107819;1268;76668;-80
2022/01/10 03:38:28;;;;;;;46.20;15.20;;;;;;;2.96;98.76;100519.46;108013;1279;63398;-81
2022/01/10 03:40:55;;;;;;;53.20;15.50;;;;;;;2.99;99.16;100527.56;108060;1279;60340;-80
2022/01/10 03:43:21;;;;;;;41.10;15.50;;;;;;;3.02;98.91;100528.13;108034;1277;74122;-80
2022/01/10 03:45:48;;;;;;;47.30;13.50;;;;;;;3.06;99.08;100530.45;108014;1278;72168;-78
2022/01/10 03:48:15;;;;;;;34.40;13.30;;;;;;;3.08;98.79;100539.21;107900;1280;73107;-78
2022/01/10 03:50:42;;;;;;;42.30;12.60;;;;;;;3.09;98.93;100545.90;108105;1279;63550;-77
2022/01/10 03:53:08;;;;;;;45.20;15.50;;;;;;;3.11;98.70;100548.50;107838;1280;60732;-80
2022/01/10 03:55:35;;;;;;;54.90;17.50;;;;;;;3.13;98.69;100551.13;108069;1279;58279;-81
2022/01/10 03:58:01;;;;;;;71.10;18.80;;;;;;;3.15;98.74;100552.40;108057;1278;71429;-80
2022/01/10 04:00:28;;;;;;;43.20;14.70;;;;;;;3.16;98.63;100556.17;108046;1278;72489;-80
2022/01/10 04:03:01;;;;;;;47.80;17.00;;;;;;;3.17;98.68;100558.86;108079;1278;60734;-79
2022/01/10 04:05:27;;;;;;;51.20;15.20;;;;;;;3.19;98.37;100565.36;107952;1281;61699;-78
2022/01/10 04:07:54;;;;;;;45.40;16.50;;;;;;;3.20;98.28;100571.17;107938;1279;74168;-79
2022/01/10 04:10:21;;;;;;;48.90;15.90;;;;;;;3.20;98.40;100574.63;108084;1278;58311;-77
2022/01/10 04:12:47;;;;;;;45.60;13.90;;;;;;;3.21;98.52;100578.81;107888;1279;58498;-79
2022/01/10 04:15:14;;;;;;;38.50;13.40;;;;;;;3.20;98.57;100583.06;108012;1279;58410;-80
2022/01/10 04:17:41;;;;;;;35.30;13.00;;;;;;;3.19;98.37;100589.06;108066;1278;60550;-81
2022/01/10 04:20:08;;;;;;;52.60;14.80;;;;;;;3.18;98.29;100594.56;108063;1279;74317;-78
2022/01/10 04:22:34;;;;;;;48.10;15.40;;;;;;;3.18;98.25;100599.99;108104;1278;71316;-78
2022/01/10 04:25:03;;;;;;;40.50;14.20;;;;;;;3.16;98.18;100604.36;108070;1278;72947;-79
2022/01/10 04:27:32;;;;;;;50.40;15.70;;;;;;;3.15;98.31;100609.38;108058;1279;63350;-79
2022/01/10 04:29:59;;;;;;;44.90;12.50;;;;;;;3.12;98.19;100615.03;108050;1278;59885;-77
2022/01/10 04:32:31;;;;;;;46.40;13.80;;;;;;;3.10;98.26;100622.16;107849;1281;74267;-79
2022/01/10 04:34:59;;;;;;;53.60;13.30;;;;;;;3.09;98.62;100624.56;107953;1281;71136;-77
2022/01/10 04:37:25;;;;;;;52.40;15.00;;;;;;;3.08;98.73;100630.42;107961;1279;73192;-80
2022/01/10 04:39:52;;;;;;;68.90;13.20;;;;;;;3.05;98.99;100631.16;107841;1281;58861;-80
2022/01/10 04:42:18;;;;;;;38.90;12.80;;;;;;;3.05;98.85;100633.61;107996;1279;60320;-79
2022/01/10 04:44:45;;;;;;;46.30;12.70;;;;;;;3.04;98.92;100639.27;107919;1280;75756;-77
2022/01/10 04:47:12;;;;;;;49.00;13.40;;;;;;;3.04;98.98;100642.77;107989;1279;72534;-77
2022/01/10 04:50:04;;;;;;;42.90;12.60;;;;;;;3.02;98.84;100645.90;108036;1279;58711;-77
2022/01/10 04:52:25;;;;;;;45.60;14.30;;;;;;;3.02;98.63;100650.48;108025;1279;62275;-80
2022/01/10 04:54:51;;;;;;;40.90;14.20;;;;;;;3.01;98.92;100658.55;107935;1279;58213;-77
2022/01/10 04:57:18;;;;;;;41.30;14.80;;;;;;;3.01;98.80;100658.73;107946;1278;74244;-78
2022/01/10 04:59:44;;;;;;;54.70;14.80;;;;;;;3.02;98.90;100665.12;107884;1280;72968;-77
2022/01/10 05:02:12;;;;;;;46.50;15.50;;;;;;;3.01;99.11;100668.20;107958;1279;74378;-81
2022/01/10 05:04:39;;;;;;;66.80;16.90;;;;;;;3.01;99.33;100670.95;107806;1280;62295;-79
2022/01/10 05:07:05;;;;;;;48.20;15.00;;;;;;;3.02;99.25;100676.60;108006;1279;58342;-78
2022/01/10 05:09:32;;;;;;;52.60;15.20;;;;;;;3.03;99.46;100678.67;107982;1279;58363;-80
2022/01/10 05:11:58;;;;;;;49.50;14.20;;;;;;;3.05;99.33;100684.06;107944;1279;58416;-80
2022/01/10 05:14:25;;;;;;;53.90;15.50;;;;;;;3.07;99.52;100688.63;107944;1280;73011;-78
2022/01/10 05:16:52;;;;;;;50.40;16.10;;;;;;;3.08;99.33;100690.86;107685;1281;62246;-79
2022/01/10 05:19:19;;;;;;;44.30;15.20;;;;;;;3.10;99.21;100693.00;107709;1279;60692;-77
2022/01/10 05:21:46;;;;;;;45.90;14.10;;;;;;;3.09;98.98;100696.17;107821;1281;74891;-81
2022/01/10 05:24:12;;;;;;;46.40;16.10;;;;;;;3.10;99.22;100702.41;107826;1280;72390;-79
2022/01/10 05:26:39;;;;;;;38.30;15.60;;;;;;;3.09;99.28;100706.64;107949;1279;74006;-80
2022/01/10 05:29:05;;;;;;;47.20;15.50;;;;;;;3.09;99.12;100714.71;107944;1279;58435;-79
2022/01/10 05:31:35;;;;;;;49.20;16.10;;;;;;;3.09;99.16;100716.95;107959;1279;58503;-77
2022/01/10 05:34:02;;;;;;;48.90;15.00;;;;;;;3.08;98.85;100723.00;107972;1280;75397;-79
2022/01/10 05:36:29;;;;;;;47.20;15.90;;;;;;;3.06;99.07;100730.15;108073;1278;71805;-77
2022/01/10 05:38:56;;;;;;;54.00;14.00;;;;;;;3.03;99.38;100733.19;108036;1279;58349;-77
2022/01/10 05:41:24;;;;;;;46.50;17.70;;;;;;;3.00;99.24;100739.36;107676;1281;62277;-79
2022/01/10 05:43:55;;;;;;;49.50;16.20;;;;;;;2.99;99.51;100747.46;107873;1280;61926;-79
2022/01/10 05:46:23;;;;;;;54.90;18.50;;;;;;;3.01;99.41;100751.34;108001;1279;74725;-78
2022/01/10 05:48:52;;;;;;;56.00;17.80;;;;;;;3.02;99.34;100762.62;107972;1279;71325;-79
2022/01/10 05:51:20;;;;;;;49.50;17.90;;;;;;;3.02;99.57;100764.05;107866;1281;73020;-79
2022/01/10 05:53:49;;;;;;;50.80;16.90;;;;;;;3.01;99.34;100770.89;107598;1281;62376;-79
2022/01/10 05:56:16;;;;;;;76.10;16.70;;;;;;;2.98;99.75;100774.27;107925;1279;62218;-81
2022/01/10 05:58:43;;;;;;;50.50;17.40;;;;;;;2.98;99.59;100780.61;107921;1281;74105;-78
2022/01/10 06:01:09;;;;;;;55.30;14.60;;;;;;;2.99;99.68;100785.96;107970;1279;58624;-77
2022/01/10 06:03:36;;;;;;;52.10;16.30;;;;;;;2.98;99.63;100792.30;107922;1281;73995;-80
2022/01/10 06:06:02;;;;;;;67.50;16.40;;;;;;;2.98;99.64;100796.49;107951;1280;62382;-77
2022/01/10 06:08:29;;;;;;;67.70;19.30;;;;;;;2.97;99.83;100800.38;107906;1280;60565;-80
2022/01/10 06:10:56;;;;;;;48.60;15.40;;;;;;;2.97;99.91;100809.01;107804;1279;74103;-77
2022/01/10 06:13:22;;;;;;;54.90;18.60;;;;;;;2.95;99.73;100812.10;107971;1281;71316;-79
2022/01/10 06:15:51;;;;;;;54.80;18.90;;;;;;;2.94;99.80;100813.28;107748;1280;74081;-77
2022/01/10 06:18:18;;;;;;;46.10;13.90;;;;;;;2.91;99.79;100818.69;107835;1281;62981;-79
2022/01/10 06:20:45;;;;;;;53.80;17.20;;;;;;;2.90;99.82;100831.23;107744;1280;60541;-77
2022/01/10 06:23:12;;;;;;;53.70;14.20;;;;;;;2.88;99.90;100836.59;107962;1279;74074;-79
2022/01/10 06:25:40;;;;;;;48.60;16.40;;;;;;;2.85;99.94;100839.45;107931;1279;58594;-77
2022/01/10 06:28:07;;;;;;;46.80;15.10;;;;;;;2.83;99.98;100845.31;107938;1279;74151;-78
2022/01/10 06:30:34;;;;;;;63.10;19.30;;;;;;;2.82;99.99;100847.69;107743;1279;64144;-79
2022/01/10 06:33:01;;;;;;;50.40;16.60;;;;;;;2.83;99.96;100854.27;107894;1280;60597;-80
2022/01/10 06:35:31;;;;;;;54.80;18.20;;;;;;;2.83;99.99;100861.19;107918;1279;75203;-80
2022/01/10 06:37:58;;;;;;;49.90;18.00;;;;;;;2.84;99.96;100864.98;108005;1281;58296;-79
2022/01/10 06:40:25;;;;;;;52.20;17.60;;;;;;;2.85;99.77;100871.39;108014;1281;58137;-79
2022/01/10 06:42:51;;;;;;;60.80;17.40;;;;;;;2.85;99.88;100878.73;107886;1281;62075;-79
2022/01/10 06:45:18;;;;;;;53.30;16.80;;;;;;;2.86;99.86;100885.84;107804;1281;61545;-78
2022/01/10 06:47:45;;;;;;;57.00;16.00;;;;;;;2.85;99.72;100892.20;107849;1281;74101;-77
2022/01/10 06:50:11;;;;;;;60.70;19.50;;;;;;;2.83;99.80;100901.56;107967;1279;72927;-79
2022/01/10 06:52:38;;;;;;;59.30;16.50;;;;;;;2.82;99.68;100906.69;108043;1279;58392;-78
2022/01/10 06:55:05;;;;;;;68.50;20.30;;;;;;;2.83;99.81;100913.27;108030;1279;58305;-76
2022/01/10 06:57:31;;;;;;;64.30;15.60;;;;;;;2.84;99.77;100916.69;107997;1279;60544;-78
2022/01/10 06:59:58;;;;;;;55.30;19.10;;;;;;;2.89;99.83;100924.08;107986;1279;74157;-80
2022/01/10 07:02:24;;;;;;;67.80;20.20;;;;;;;2.90;99.89;100929.02;108031;1279;58715;-77
2022/01/10 07:04:51;;;;;;;65.30;18.70;;;;;;;2.92;99.85;100936.18;108038;1267;73016;-79
2022/01/10 07:07:18;;;;;;;59.20;18.10;;;;;;;2.96;99.91;100939.94;108137;1269;62234;-80
2022/01/10 07:09:44;;;;;;;58.70;19.10;;;;;;;2.98;99.89;100942.52;108364;1276;58326;-77
2022/01/10 07:12:12;;;;;;;67.30;20.30;;;;;;;2.99;99.82;100949.94;108408;1277;73389;-78
2022/01/10 07:14:39;;;;;;;68.60;19.30;;;;;;;3.00;99.54;100957.23;108081;1277;72512;-77
2022/01/10 07:17:05;;;;;;;71.20;20.20;;;;;;;2.99;99.67;100960.42;108238;1277;72925;-79
2022/01/10 07:19:32;;;;;;;64.00;20.20;;;;;;;2.99;99.77;100968.38;108343;1277;61953;-79
2022/01/10 07:21:58;;;;;;;60.90;19.10;;;;;;;2.98;99.77;100975.76;108338;1277;57664;-75
2022/01/10 07:24:25;;;;;;;61.30;18.50;;;;;;;2.98;99.69;100979.95;108138;1277;59576;-76
2022/01/10 07:26:52;;;;;;;77.20;24.30;;;;;;;2.99;99.69;100986.27;108287;1277;73759;-74
2022/01/10 07:29:18;;;;;;;78.00;24.90;;;;;;;3.03;99.96;100992.85;108284;1277;74681;-76
2022/01/10 07:31:45;;;;;;;78.00;21.50;;;;;;;3.05;99.83;101001.75;108030;1278;63426;-76
2022/01/10 07:34:14;;;;;;;70.50;21.50;;;;;;;3.09;99.94;101013.46;108068;1279;60331;-74
2022/01/10 07:36:41;;;;;;;64.30;19.90;;;;;;;3.12;99.87;101015.52;108145;1278;75245;-76
2022/01/10 07:39:08;;;;;;;64.00;19.60;;;;;;;3.15;99.66;101024.58;108095;1278;73041;-76
2022/01/10 07:41:35;;;;;;;75.40;20.40;;;;;;;3.15;99.58;101028.02;108105;1279;73408;-74
2022/01/10 07:44:02;;;;;;;71.10;19.60;;;;;;;3.16;99.38;101038.97;108131;1278;61249;-76
2022/01/10 07:46:29;;;;;;;72.70;20.50;;;;;;;3.18;99.35;101038.65;108129;1279;61969;-75
2022/01/10 07:48:55;;;;;;;85.40;23.20;;;;;;;3.20;99.72;101047.07;108115;1280;75420;-76
2022/01/10 07:51:23;;;;;;;71.60;18.70;;;;;;;3.21;99.37;101050.98;108144;1278;72621;-75
2022/01/10 07:53:53;;;;;;;70.20;22.50;;;;;;;3.23;99.39;101055.77;108087;1279;74446;-76
2022/01/10 07:56:19;;;;;;;62.70;19.30;;;;;;;3.24;99.43;101061.27;108197;1277;63318;-75
2022/01/10 07:58:51;;;;;;;102.60;26.80;;;;;;;3.25;99.23;101062.76;108165;1279;57664;-75
2022/01/10 08:01:19;;;;;;;71.30;22.50;;;;;;;3.29;99.37;101068.98;107821;1280;73288;-75
2022/01/10 08:03:49;;;;;;;72.90;22.10;;;;;;;3.31;99.13;101073.84;108102;1279;70215;-75
2022/01/10 08:06:20;;;;;;;46.10;13.10;;;;;;;3.34;99.07;101082.92;107938;1279;74229;-77
2022/01/10 08:08:50;;;;;;;83.70;23.40;;;;;;;3.35;99.14;101086.67;107845;1277;62332;-76
2022/01/10 08:11:17;;;;;;;88.20;26.80;;;;;;;3.38;99.03;101092.34;108074;1279;60901;-73
2022/01/10 08:13:47;;;;;;;78.70;21.00;;;;;;;3.43;98.96;101095.63;107941;1279;76254;-73
2022/01/10 08:16:16;;;;;;;69.90;22.50;;;;;;;3.46;98.74;101103.10;108182;1276;71326;-76
2022/01/10 08:18:43;;;;;;;89.10;26.90;;;;;;;3.50;98.71;101110.70;108182;1278;73101;-75
2022/01/10 08:21:09;;;;;;;74.40;21.20;;;;;;;3.54;98.44;101116.65;108118;1277;58268;-74
2022/01/10 08:23:36;;;;;;;76.60;20.30;;;;;;;3.55;98.07;101120.42;108177;1277;58276;-74
2022/01/10 08:26:03;;;;;;;76.00;21.70;;;;;;;3.56;97.82;101123.82;108174;1277;58614;-76
2022/01/10 08:28:36;;;;;;;78.90;23.60;;;;;;;3.57;97.87;101129.20;108140;1278;71383;-75
2022/01/10 08:31:03;;;;;;;87.80;21.80;;;;;;;3.58;97.96;101134.54;108175;1280;72897;-75
2022/01/10 08:33:30;;;;;;;73.00;22.40;;;;;;;3.60;98.07;101142.60;107972;1279;63740;-75
2022/01/10 08:35:57;;;;;;;77.80;24.60;;;;;;;3.62;97.71;101146.32;107721;1279;60800;-77
2022/01/10 08:38:24;;;;;;;81.40;23.80;;;;;;;3.64;97.50;101151.21;108162;1277;75221;-77
2022/01/10 08:40:50;;;;;;;73.60;23.20;;;;;;;3.66;97.63;101152.56;108159;1277;70434;-77
2022/01/10 08:43:17;;;;;;;59.00;18.90;;;;;;;3.70;97.48;101160.39;107940;1279;58333;-74
2022/01/10 08:45:44;;;;;;;74.30;21.40;;;;;;;3.73;97.06;101162.98;108074;1278;63647;-74
2022/01/10 08:48:11;;;;;;;58.60;20.30;;;;;;;3.76;96.93;101170.58;107965;1280;60488;-75
2022/01/10 08:50:37;;;;;;;64.90;22.40;;;;;;;3.78;96.78;101170.80;108138;1277;74099;-75
2022/01/10 08:53:06;;;;;;;69.20;23.80;;;;;;;3.79;96.54;101172.48;108136;1277;71677;-76
2022/01/10 08:55:32;;;;;;;70.30;20.60;;;;;;;3.81;96.49;101175.11;107940;1280;73963;-75
2022/01/10 08:58:01;;;;;;;62.90;19.20;;;;;;;3.81;96.34;101182.08;108090;1279;63018;-74
2022/01/10 09:00:27;;;;;;;75.00;20.50;;;;;;;3.80;96.17;101186.34;107802;1280;60639;-75
2022/01/10 09:02:54;;;;;;;52.20;15.00;;;;;;;3.81;96.14;101189.26;108204;1278;73495;-75
2022/01/10 09:05:21;;;;;;;70.90;20.10;;;;;;;3.82;96.25;101194.58;107956;1278;71546;-75
2022/01/10 09:07:49;;;;;;;72.20;21.70;;;;;;;3.82;96.08;101197.90;108188;1279;74103;-75
2022/01/10 09:10:15;;;;;;;66.70;21.30;;;;;;;3.83;95.68;101200.11;107861;1279;62910;-74
2022/01/10 09:12:42;;;;;;;73.40;24.30;;;;;;;3.84;95.91;101204.38;108175;1278;57620;-74
2022/01/10 09:15:09;;;;;;;74.30;22.90;;;;;;;3.88;95.91;101208.52;108111;1278;75207;-77
2022/01/10 09:17:36;;;;;;;61.60;18.40;;;;;;;3.92;96.19;101208.70;107856;1280;72901;-77
2022/01/10 09:20:03;;;;;;;74.40;21.40;;;;;;;3.97;95.81;101210.56;107987;1280;72920;-76
2022/01/10 09:22:29;;;;;;;67.70;24.20;;;;;;;4.01;95.63;101213.38;108134;1279;62351;-77
2022/01/10 09:24:56;;;;;;;60.90;22.80;;;;;;;4.07;95.31;101217.33;108136;1278;62055;-75
2022/01/10 09:27:23;;;;;;;86.10;25.30;;;;;;;4.14;95.51;101221.20;108214;1278;60760;-76
2022/01/10 09:29:49;;;;;;;57.20;19.30;;;;;;;4.19;94.98;101226.41;108168;1277;71479;-74
2022/01/10 09:32:16;;;;;;;71.70;21.10;;;;;;;4.20;94.61;101234.50;108143;1279;72938;-74
2022/01/10 09:34:43;;;;;;;71.40;20.80;;;;;;;4.22;94.46;101236.35;108094;1279;62981;-76
2022/01/10 09:37:10;;;;;;;76.50;24.30;;;;;;;4.24;94.60;101241.35;108209;1278;60780;-77
2022/01/10 09:39:36;;;;;;;64.80;21.70;;;;;;;4.24;94.01;101250.83;108146;1277;74656;-75
2022/01/10 09:42:03;;;;;;;81.40;22.90;;;;;;;4.27;94.26;101253.38;107784;1279;70177;-75
2022/01/10 09:44:31;;;;;;;85.30;23.80;;;;;;;4.31;93.89;101259.27;108170;1277;72855;-75
2022/01/10 09:46:57;;;;;;;76.50;23.40;;;;;;;4.35;93.71;101264.56;108193;1279;62046;-74
2022/01/10 09:49:24;;;;;;;76.10;21.50;;;;;;;4.38;93.25;101266.42;108166;1278;58295;-75
2022/01/10 09:51:51;;;;;;;81.60;26.80;;;;;;;4.41;93.02;101266.47;108083;1279;74157;-74
2022/01/10 09:54:17;;;;;;;64.20;23.10;;;;;;;4.50;92.87;101267.41;107873;1279;71806;-75
2022/01/10 09:56:47;;;;;;;67.60;24.00;;;;;;;4.61;92.89;101270.04;108171;1277;72876;-74
2022/01/10 09:59:15;;;;;;;68.30;22.20;;;;;;;4.70;92.56;101271.89;108190;1277;62222;-74
2022/01/10 10:01:43;;;;;;;55.50;20.10;;;;;;;4.78;92.67;101272.48;108190;1277;61058;-75
2022/01/10 10:04:11;;;;;;;60.40;20.50;;;;;;;4.86;92.95;101275.17;108117;1278;74289;-77
2022/01/10 10:06:38;;;;;;;67.70;25.10;;;;;;;4.91;93.05;101279.53;107787;1280;71031;-75
2022/01/10 10:09:07;;;;;;;76.50;21.80;;;;;;;4.99;93.03;101279.76;108130;1277;58301;-77
2022/01/10 10:11:41;;;;;;;66.40;24.30;;;;;;;5.05;92.91;101287.54;108067;1279;61477;-78
2022/01/10 10:14:11;;;;;;;61.80;21.30;;;;;;;5.08;93.03;101293.57;107967;1279;59560;-75
2022/01/10 10:16:46;;;;;;;64.70;20.10;;;;;;;5.06;92.47;101300.88;108102;1279;74219;-77
2022/01/10 10:19:14;;;;;;;65.50;22.00;;;;;;;4.98;91.85;101309.69;108233;1277;73275;-77
2022/01/10 10:21:41;;;;;;;56.00;16.90;;;;;;;4.91;92.33;101315.66;108085;1279;74738;-76
2022/01/10 10:24:08;;;;;;;65.50;22.00;;;;;;;4.85;92.59;101313.95;108178;1277;63402;-77
2022/01/10 10:26:36;;;;;;;61.30;20.70;;;;;;;4.86;93.14;101318.45;108134;1277;60377;-76
2022/01/10 10:29:03;;;;;;;67.80;20.50;;;;;;;4.90;93.31;101322.04;108163;1277;74276;-78
2022/01/10 10:31:43;;;;;;;61.70;22.10;;;;;;;4.98;93.10;101329.27;108097;1279;70470;-76
2022/01/10 10:34:12;;;;;;;56.90;22.00;;;;;;;5.01;93.33;101332.33;108178;1279;73027;-76
2022/01/10 10:36:42;;;;;;;58.80;20.40;;;;;;;5.01;93.21;101339.02;108156;1278;62282;-76
2022/01/10 10:39:10;;;;;;;67.40;19.60;;;;;;;4.98;93.25;101338.95;108155;1279;60753;-79
2022/01/10 10:41:38;;;;;;;50.20;22.60;;;;;;;4.95;93.28;101338.27;108168;1277;75162;-77
2022/01/10 10:44:05;;;;;;;69.00;24.70;;;;;;;4.97;93.61;101339.18;108109;1279;72348;-77
2022/01/10 10:46:32;;;;;;;59.80;21.70;;;;;;;5.00;93.74;101345.75;108160;1277;72894;-76
2022/01/10 10:49:03;;;;;;;67.40;23.60;;;;;;;5.02;93.79;101349.09;108187;1277;63239;-77
2022/01/10 10:51:33;;;;;;;58.90;23.30;;;;;;;5.02;93.22;101360.33;108128;1279;61312;-76
2022/01/10 10:54:02;;;;;;;67.60;23.50;;;;;;;5.03;92.95;101363.79;108184;1278;76400;-77
2022/01/10 10:56:37;;;;;;;62.20;20.40;;;;;;;5.09;93.16;101365.57;107901;1277;71347;-77
2022/01/10 10:59:07;;;;;;;59.90;23.40;;;;;;;5.13;92.83;101373.45;108128;1278;72784;-76
2022/01/10 11:01:36;;;;;;;78.50;26.80;;;;;;;5.14;92.72;101373.06;107869;1277;62253;-76
2022/01/10 11:04:09;;;;;;;65.40;24.70;;;;;;;5.14;92.98;101379.92;108114;1280;60297;-76
2022/01/10 11:06:40;;;;;;;88.90;26.50;;;;;;;5.10;92.75;101378.60;108126;1279;72448;-76
2022/01/10 11:09:12;;;;;;;65.00;24.80;;;;;;;5.06;93.19;101380.52;108101;1279;71506;-76
2022/01/10 11:11:41;;;;;;;76.40;28.90;;;;;;;5.07;93.47;101381.19;108058;1279;73939;-76
2022/01/10 11:14:11;;;;;;;67.00;23.20;;;;;;;5.10;93.39;101385.45;108084;1279;61375;-78
2022/01/10 11:16:39;;;;;;;81.40;27.30;;;;;;;5.20;93.43;101388.52;108155;1278;60602;-76
2022/01/10 11:19:19;;;;;;;57.20;23.30;;;;;;;5.31;93.24;101384.98;107973;1277;75010;-77